sensor_id;sensor_type;location;lat;lon;timestamp;temperature;humidity
837;DHT22;400;53.550;9.932;2022-10-16T00:01:20;15.80;99.90
837;DHT22;400;53.550;9.932;2022-10-16T00:03:48;15.80;99.90
837;DHT22;400;53.550;9.932;2022-10-16T00:06:17;15.80;99.90
837;DHT22;400;53.550;9.932;2022-10-16T00:08:46;15.80;99.90
837;DHT22;400;53.550;9.932;2022-10-16T00:11:18;15.90;99.90
837;DHT22;400;53.550;9.932;2022-10-16T00:13:47;15.90;99.90
837;DHT22;400;53.550;9.932;2022-10-16T00:16:16;15.90;99.90
837;DHT22;400;53.550;9.932;2022-10-16T00:18:43;15.90;99.90
837;DHT22;400;53.550;9.932;2022-10-16T00:21:12;15.90;99.90
837;DHT22;400;53.550;9.932;2022-10-16T00:23:39;15.80;99.90
837;DHT22;400;53.550;9.932;2022-10-16T00:26:09;15.80;99.90
837;DHT22;400;53.550;9.932;2022-10-16T00:28:37;15.80;99.90
837;DHT22;400;53.550;9.932;2022-10-16T00:31:08;15.80;99.90
837;DHT22;400;53.550;9.932;2022-10-16T00:33:37;15.80;99.90
837;DHT22;400;53.550;9.932;2022-10-16T00:36:06;15.80;99.90
837;DHT22;400;53.550;9.932;2022-10-16T00:38:33;15.80;99.90
837;DHT22;400;53.550;9.932;2022-10-16T00:41:00;15.80;99.90
837;DHT22;400;53.550;9.932;2022-10-16T00:43:39;15.80;99.90
837;DHT22;400;53.550;9.932;2022-10-16T00:46:13;15.90;99.90
837;DHT22;400;53.550;9.932;2022-10-16T00:48:47;15.80;99.90
837;DHT22;400;53.550;9.932;2022-10-16T00:51:15;15.80;99.90
837;DHT22;400;53.550;9.932;2022-10-16T00:53:44;15.80;99.90
837;DHT22;400;53.550;9.932;2022-10-16T00:56:12;15.80;99.90
837;DHT22;400;53.550;9.932;2022-10-16T00:58:40;15.80;99.90
837;DHT22;400;53.550;9.932;2022-10-16T01:01:07;15.80;99.90
837;DHT22;400;53.550;9.932;2022-10-16T01:03:37;15.70;99.90
837;DHT22;400;53.550;9.932;2022-10-16T01:06:23;15.70;99.90
837;DHT22;400;53.550;9.932;2022-10-16T01:09:02;15.60;99.90
837;DHT22;400;53.550;9.932;2022-10-16T01:11:34;15.70;99.90
837;DHT22;400;53.550;9.932;2022-10-16T01:14:10;15.70;99.90
837;DHT22;400;53.550;9.932;2022-10-16T01:16:42;15.60;99.90
837;DHT22;400;53.550;9.932;2022-10-16T01:19:15;15.50;99.90
837;DHT22;400;53.550;9.932;2022-10-16T01:21:46;15.60;99.90
837;DHT22;400;53.550;9.932;2022-10-16T01:24:21;15.60;99.90
837;DHT22;400;53.550;9.932;2022-10-16T01:27:12;15.60;99.90
837;DHT22;400;53.550;9.932;2022-10-16T01:29:48;15.60;99.90
837;DHT22;400;53.550;9.932;2022-10-16T01:32:18;15.70;99.90
837;DHT22;400;53.550;9.932;2022-10-16T01:34:53;15.60;99.90
837;DHT22;400;53.550;9.932;2022-10-16T01:37:32;15.50;99.90
837;DHT22;400;53.550;9.932;2022-10-16T01:40:00;15.50;99.90
837;DHT22;400;53.550;9.932;2022-10-16T01:42:34;15.50;99.90
837;DHT22;400;53.550;9.932;2022-10-16T01:45:03;15.50;99.90
837;DHT22;400;53.550;9.932;2022-10-16T01:47:32;15.50;99.90
837;DHT22;400;53.550;9.932;2022-10-16T01:50:02;15.50;99.90
837;DHT22;400;53.550;9.932;2022-10-16T01:52:32;15.50;99.90
837;DHT22;400;53.550;9.932;2022-10-16T01:55:03;15.40;99.90
837;DHT22;400;53.550;9.932;2022-10-16T01:57:34;15.50;99.90
837;DHT22;400;53.550;9.932;2022-10-16T02:00:07;15.50;99.90
837;DHT22;400;53.550;9.932;2022-10-16T02:02:35;15.50;99.90
837;DHT22;400;53.550;9.932;2022-10-16T02:05:08;15.50;99.90
837;DHT22;400;53.550;9.932;2022-10-16T02:07:37;15.40;99.90
837;DHT22;400;53.550;9.932;2022-10-16T02:10:04;15.40;99.90
837;DHT22;400;53.550;9.932;2022-10-16T02:12:36;15.40;99.90
837;DHT22;400;53.550;9.932;2022-10-16T02:15:05;15.40;99.90
837;DHT22;400;53.550;9.932;2022-10-16T02:17:32;15.40;99.90
837;DHT22;400;53.550;9.932;2022-10-16T02:20:00;15.40;99.90
837;DHT22;400;53.550;9.932;2022-10-16T02:22:32;15.40;99.90
837;DHT22;400;53.550;9.932;2022-10-16T02:25:03;15.20;99.90
837;DHT22;400;53.550;9.932;2022-10-16T02:27:37;15.30;99.90
837;DHT22;400;53.550;9.932;2022-10-16T02:30:08;15.30;99.90
837;DHT22;400;53.550;9.932;2022-10-16T02:32:40;15.30;99.90
837;DHT22;400;53.550;9.932;2022-10-16T02:35:09;15.30;99.90
837;DHT22;400;53.550;9.932;2022-10-16T02:37:36;15.30;99.90
837;DHT22;400;53.550;9.932;2022-10-16T02:40:05;15.30;99.90
837;DHT22;400;53.550;9.932;2022-10-16T02:42:35;15.30;99.90
837;DHT22;400;53.550;9.932;2022-10-16T02:45:03;15.30;99.90
837;DHT22;400;53.550;9.932;2022-10-16T02:47:33;15.20;99.90
837;DHT22;400;53.550;9.932;2022-10-16T02:49:59;15.20;99.90
837;DHT22;400;53.550;9.932;2022-10-16T02:52:26;15.20;99.90
837;DHT22;400;53.550;9.932;2022-10-16T02:54:53;15.10;99.90
837;DHT22;400;53.550;9.932;2022-10-16T02:57:20;15.10;99.90
837;DHT22;400;53.550;9.932;2022-10-16T02:59:48;15.10;99.90
837;DHT22;400;53.550;9.932;2022-10-16T03:02:15;15.10;99.90
837;DHT22;400;53.550;9.932;2022-10-16T03:04:42;15.10;99.90
837;DHT22;400;53.550;9.932;2022-10-16T03:07:09;15.00;99.90
837;DHT22;400;53.550;9.932;2022-10-16T03:09:36;15.00;99.90
837;DHT22;400;53.550;9.932;2022-10-16T03:12:03;15.10;99.90
837;DHT22;400;53.550;9.932;2022-10-16T03:14:32;15.10;99.90
837;DHT22;400;53.550;9.932;2022-10-16T03:17:03;15.00;99.90
837;DHT22;400;53.550;9.932;2022-10-16T03:19:33;15.00;99.90
837;DHT22;400;53.550;9.932;2022-10-16T03:22:01;15.00;99.90
837;DHT22;400;53.550;9.932;2022-10-16T03:24:28;15.00;99.90
837;DHT22;400;53.550;9.932;2022-10-16T03:26:55;15.00;99.90
837;DHT22;400;53.550;9.932;2022-10-16T03:29:22;14.90;99.90
837;DHT22;400;53.550;9.932;2022-10-16T03:31:49;14.90;99.90
837;DHT22;400;53.550;9.932;2022-10-16T03:34:20;14.90;99.90
837;DHT22;400;53.550;9.932;2022-10-16T03:36:47;14.90;99.90
837;DHT22;400;53.550;9.932;2022-10-16T03:39:14;14.90;99.90
837;DHT22;400;53.550;9.932;2022-10-16T03:41:41;14.90;99.90
837;DHT22;400;53.550;9.932;2022-10-16T03:44:08;14.90;99.90
837;DHT22;400;53.550;9.932;2022-10-16T03:46:35;14.90;99.90
837;DHT22;400;53.550;9.932;2022-10-16T03:49:02;14.80;99.90
837;DHT22;400;53.550;9.932;2022-10-16T03:51:30;14.90;99.90
837;DHT22;400;53.550;9.932;2022-10-16T03:53:57;14.90;99.90
837;DHT22;400;53.550;9.932;2022-10-16T03:56:24;14.90;99.90
837;DHT22;400;53.550;9.932;2022-10-16T03:58:51;14.90;99.90
837;DHT22;400;53.550;9.932;2022-10-16T04:01:17;14.80;99.90
837;DHT22;400;53.550;9.932;2022-10-16T04:03:44;14.90;99.90
837;DHT22;400;53.550;9.932;2022-10-16T04:06:11;14.90;99.90
837;DHT22;400;53.550;9.932;2022-10-16T04:08:47;14.80;99.90
837;DHT22;400;53.550;9.932;2022-10-16T04:11:17;14.80;99.90
837;DHT22;400;53.550;9.932;2022-10-16T04:13:44;14.70;99.90
837;DHT22;400;53.550;9.932;2022-10-16T04:16:11;14.80;99.90
837;DHT22;400;53.550;9.932;2022-10-16T04:18:38;14.80;99.90
837;DHT22;400;53.550;9.932;2022-10-16T04:21:05;14.80;99.90
837;DHT22;400;53.550;9.932;2022-10-16T04:23:32;14.70;99.90
837;DHT22;400;53.550;9.932;2022-10-16T04:26:01;14.70;99.90
837;DHT22;400;53.550;9.932;2022-10-16T04:28:28;14.70;99.90
837;DHT22;400;53.550;9.932;2022-10-16T04:30:55;14.70;99.90
837;DHT22;400;53.550;9.932;2022-10-16T04:33:22;14.70;99.90
837;DHT22;400;53.550;9.932;2022-10-16T04:35:55;14.70;99.90
837;DHT22;400;53.550;9.932;2022-10-16T04:38:22;14.70;99.90
837;DHT22;400;53.550;9.932;2022-10-16T04:40:49;14.70;99.90
837;DHT22;400;53.550;9.932;2022-10-16T04:43:17;14.70;99.90
837;DHT22;400;53.550;9.932;2022-10-16T04:45:44;14.70;99.90
837;DHT22;400;53.550;9.932;2022-10-16T04:48:19;14.60;99.90
837;DHT22;400;53.550;9.932;2022-10-16T04:50:46;14.70;99.90
837;DHT22;400;53.550;9.932;2022-10-16T04:53:13;14.60;99.90
837;DHT22;400;53.550;9.932;2022-10-16T04:55:41;14.60;99.90
837;DHT22;400;53.550;9.932;2022-10-16T04:58:08;14.60;99.90
837;DHT22;400;53.550;9.932;2022-10-16T05:00:39;14.60;99.90
837;DHT22;400;53.550;9.932;2022-10-16T05:03:06;14.60;99.90
837;DHT22;400;53.550;9.932;2022-10-16T05:05:36;14.60;99.90
837;DHT22;400;53.550;9.932;2022-10-16T05:08:06;14.60;99.90
837;DHT22;400;53.550;9.932;2022-10-16T05:10:35;14.60;99.90
837;DHT22;400;53.550;9.932;2022-10-16T05:13:02;14.70;99.90
837;DHT22;400;53.550;9.932;2022-10-16T05:15:29;14.60;99.90
837;DHT22;400;53.550;9.932;2022-10-16T05:17:57;14.60;99.90
837;DHT22;400;53.550;9.932;2022-10-16T05:20:24;14.60;99.90
837;DHT22;400;53.550;9.932;2022-10-16T05:22:51;14.60;99.90
837;DHT22;400;53.550;9.932;2022-10-16T05:25:18;14.60;99.90
837;DHT22;400;53.550;9.932;2022-10-16T05:27:47;14.60;99.90
837;DHT22;400;53.550;9.932;2022-10-16T05:30:14;14.70;99.90
837;DHT22;400;53.550;9.932;2022-10-16T05:32:41;14.60;99.90
837;DHT22;400;53.550;9.932;2022-10-16T05:35:10;14.60;99.90
837;DHT22;400;53.550;9.932;2022-10-16T05:37:36;14.60;99.90
837;DHT22;400;53.550;9.932;2022-10-16T05:40:04;14.60;99.90
837;DHT22;400;53.550;9.932;2022-10-16T05:42:31;14.60;99.90
837;DHT22;400;53.550;9.932;2022-10-16T05:44:59;14.60;99.90
837;DHT22;400;53.550;9.932;2022-10-16T05:47:26;14.60;99.90
837;DHT22;400;53.550;9.932;2022-10-16T05:49:53;14.60;99.90
837;DHT22;400;53.550;9.932;2022-10-16T05:52:26;14.60;99.90
837;DHT22;400;53.550;9.932;2022-10-16T05:54:53;14.60;99.90
837;DHT22;400;53.550;9.932;2022-10-16T05:57:20;14.60;99.90
837;DHT22;400;53.550;9.932;2022-10-16T05:59:47;14.60;99.90
837;DHT22;400;53.550;9.932;2022-10-16T06:02:14;14.60;99.90
837;DHT22;400;53.550;9.932;2022-10-16T06:04:41;14.70;99.90
837;DHT22;400;53.550;9.932;2022-10-16T06:07:08;14.70;99.90
837;DHT22;400;53.550;9.932;2022-10-16T06:09:36;14.80;99.90
837;DHT22;400;53.550;9.932;2022-10-16T06:12:03;14.70;99.90
837;DHT22;400;53.550;9.932;2022-10-16T06:14:30;14.80;99.90
837;DHT22;400;53.550;9.932;2022-10-16T06:16:57;14.70;99.90
837;DHT22;400;53.550;9.932;2022-10-16T06:19:24;14.80;99.90
837;DHT22;400;53.550;9.932;2022-10-16T06:21:51;14.70;99.90
837;DHT22;400;53.550;9.932;2022-10-16T06:24:18;14.80;99.90
837;DHT22;400;53.550;9.932;2022-10-16T06:26:48;14.80;99.90
837;DHT22;400;53.550;9.932;2022-10-16T06:29:15;14.80;99.90
837;DHT22;400;53.550;9.932;2022-10-16T06:31:41;14.90;99.90
837;DHT22;400;53.550;9.932;2022-10-16T06:34:09;14.90;99.90
837;DHT22;400;53.550;9.932;2022-10-16T06:36:37;14.90;99.90
837;DHT22;400;53.550;9.932;2022-10-16T06:39:04;14.90;99.90
837;DHT22;400;53.550;9.932;2022-10-16T06:41:33;14.80;99.90
837;DHT22;400;53.550;9.932;2022-10-16T06:44:04;14.90;99.90
837;DHT22;400;53.550;9.932;2022-10-16T06:46:31;14.80;99.90
837;DHT22;400;53.550;9.932;2022-10-16T06:48:58;14.90;99.90
837;DHT22;400;53.550;9.932;2022-10-16T06:51:25;14.80;99.90
837;DHT22;400;53.550;9.932;2022-10-16T06:53:53;14.80;99.90
837;DHT22;400;53.550;9.932;2022-10-16T06:56:23;14.90;99.90
837;DHT22;400;53.550;9.932;2022-10-16T06:58:51;15.00;99.90
837;DHT22;400;53.550;9.932;2022-10-16T07:01:21;14.90;99.90
837;DHT22;400;53.550;9.932;2022-10-16T07:03:48;14.90;99.90
837;DHT22;400;53.550;9.932;2022-10-16T07:06:17;15.10;99.90
837;DHT22;400;53.550;9.932;2022-10-16T07:08:46;15.10;99.90
837;DHT22;400;53.550;9.932;2022-10-16T07:11:15;15.20;99.90
837;DHT22;400;53.550;9.932;2022-10-16T07:13:43;15.20;99.90
837;DHT22;400;53.550;9.932;2022-10-16T07:16:12;15.30;99.90
837;DHT22;400;53.550;9.932;2022-10-16T07:18:42;15.30;99.90
837;DHT22;400;53.550;9.932;2022-10-16T07:21:14;15.40;99.90
837;DHT22;400;53.550;9.932;2022-10-16T07:23:41;15.40;99.90
837;DHT22;400;53.550;9.932;2022-10-16T07:26:09;15.30;99.90
837;DHT22;400;53.550;9.932;2022-10-16T07:28:37;15.40;99.90
837;DHT22;400;53.550;9.932;2022-10-16T07:31:09;15.30;99.90
837;DHT22;400;53.550;9.932;2022-10-16T07:33:41;15.20;99.90
837;DHT22;400;53.550;9.932;2022-10-16T07:36:10;15.20;99.90
837;DHT22;400;53.550;9.932;2022-10-16T07:38:38;15.20;99.90
837;DHT22;400;53.550;9.932;2022-10-16T07:41:06;15.30;99.90
837;DHT22;400;53.550;9.932;2022-10-16T07:43:34;15.30;99.90
837;DHT22;400;53.550;9.932;2022-10-16T07:46:03;15.30;99.90
837;DHT22;400;53.550;9.932;2022-10-16T07:48:33;15.30;99.90
837;DHT22;400;53.550;9.932;2022-10-16T07:51:06;15.40;99.90
837;DHT22;400;53.550;9.932;2022-10-16T07:53:36;15.40;99.90
837;DHT22;400;53.550;9.932;2022-10-16T07:56:07;15.50;99.90
837;DHT22;400;53.550;9.932;2022-10-16T07:58:39;15.50;99.90
837;DHT22;400;53.550;9.932;2022-10-16T08:01:07;15.50;99.90
837;DHT22;400;53.550;9.932;2022-10-16T08:03:35;15.50;99.90
837;DHT22;400;53.550;9.932;2022-10-16T08:06:04;15.50;99.90
837;DHT22;400;53.550;9.932;2022-10-16T08:08:31;15.50;99.90
837;DHT22;400;53.550;9.932;2022-10-16T08:11:01;15.50;99.90
837;DHT22;400;53.550;9.932;2022-10-16T08:13:29;15.50;99.90
837;DHT22;400;53.550;9.932;2022-10-16T08:15:56;15.50;99.90
837;DHT22;400;53.550;9.932;2022-10-16T08:18:23;15.40;99.90
837;DHT22;400;53.550;9.932;2022-10-16T08:20:55;15.40;99.90
837;DHT22;400;53.550;9.932;2022-10-16T08:23:24;15.50;99.90
837;DHT22;400;53.550;9.932;2022-10-16T08:25:52;15.50;99.90
837;DHT22;400;53.550;9.932;2022-10-16T08:28:22;15.50;99.90
837;DHT22;400;53.550;9.932;2022-10-16T08:30:50;15.60;99.90
837;DHT22;400;53.550;9.932;2022-10-16T08:33:18;15.50;99.90
837;DHT22;400;53.550;9.932;2022-10-16T08:35:52;15.60;99.90
837;DHT22;400;53.550;9.932;2022-10-16T08:38:27;15.70;99.90
837;DHT22;400;53.550;9.932;2022-10-16T08:41:10;15.70;99.90
837;DHT22;400;53.550;9.932;2022-10-16T08:43:58;15.70;99.90
837;DHT22;400;53.550;9.932;2022-10-16T08:46:39;15.70;99.90
837;DHT22;400;53.550;9.932;2022-10-16T08:49:18;15.70;99.90
837;DHT22;400;53.550;9.932;2022-10-16T08:51:45;15.80;99.90
837;DHT22;400;53.550;9.932;2022-10-16T08:54:28;15.90;99.90
837;DHT22;400;53.550;9.932;2022-10-16T08:57:00;15.90;99.90
837;DHT22;400;53.550;9.932;2022-10-16T08:59:32;15.90;99.90
837;DHT22;400;53.550;9.932;2022-10-16T09:02:02;15.90;99.90
837;DHT22;400;53.550;9.932;2022-10-16T09:07:44;16.10;99.90
837;DHT22;400;53.550;9.932;2022-10-16T09:10:35;16.20;99.90
837;DHT22;400;53.550;9.932;2022-10-16T09:13:12;16.20;99.90
837;DHT22;400;53.550;9.932;2022-10-16T09:15:47;16.30;99.90
837;DHT22;400;53.550;9.932;2022-10-16T09:18:21;16.40;99.90
837;DHT22;400;53.550;9.932;2022-10-16T09:21:00;16.30;99.90
837;DHT22;400;53.550;9.932;2022-10-16T09:23:32;16.40;99.90
837;DHT22;400;53.550;9.932;2022-10-16T09:26:11;16.50;99.90
837;DHT22;400;53.550;9.932;2022-10-16T09:28:41;16.50;99.90
837;DHT22;400;53.550;9.932;2022-10-16T09:31:15;16.60;99.90
837;DHT22;400;53.550;9.932;2022-10-16T09:33:47;16.60;99.90
837;DHT22;400;53.550;9.932;2022-10-16T09:36:15;16.70;99.90
837;DHT22;400;53.550;9.932;2022-10-16T09:38:45;16.70;99.90
837;DHT22;400;53.550;9.932;2022-10-16T09:41:20;16.80;99.90
837;DHT22;400;53.550;9.932;2022-10-16T09:43:56;16.80;99.90
837;DHT22;400;53.550;9.932;2022-10-16T09:46:27;16.90;99.90
837;DHT22;400;53.550;9.932;2022-10-16T09:48:59;17.00;99.90
837;DHT22;400;53.550;9.932;2022-10-16T09:51:29;17.10;99.90
837;DHT22;400;53.550;9.932;2022-10-16T09:53:58;17.10;99.90
837;DHT22;400;53.550;9.932;2022-10-16T09:56:28;17.10;99.90
837;DHT22;400;53.550;9.932;2022-10-16T09:58:57;17.20;99.90
837;DHT22;400;53.550;9.932;2022-10-16T10:01:37;17.20;99.90
837;DHT22;400;53.550;9.932;2022-10-16T10:04:10;17.20;99.90
837;DHT22;400;53.550;9.932;2022-10-16T10:06:44;17.30;99.90
837;DHT22;400;53.550;9.932;2022-10-16T10:09:20;17.30;99.90
837;DHT22;400;53.550;9.932;2022-10-16T10:11:51;17.30;99.90
837;DHT22;400;53.550;9.932;2022-10-16T10:14:31;17.30;99.90
837;DHT22;400;53.550;9.932;2022-10-16T10:17:17;17.40;99.90
837;DHT22;400;53.550;9.932;2022-10-16T10:19:52;17.50;99.90
837;DHT22;400;53.550;9.932;2022-10-16T10:22:26;17.40;99.90
837;DHT22;400;53.550;9.932;2022-10-16T10:25:01;17.40;99.90
837;DHT22;400;53.550;9.932;2022-10-16T10:27:49;17.50;99.90
837;DHT22;400;53.550;9.932;2022-10-16T10:30:22;17.50;99.90
837;DHT22;400;53.550;9.932;2022-10-16T10:33:03;17.50;99.90
837;DHT22;400;53.550;9.932;2022-10-16T10:35:37;17.50;99.90
837;DHT22;400;53.550;9.932;2022-10-16T10:38:20;17.60;99.90
837;DHT22;400;53.550;9.932;2022-10-16T10:40:55;17.70;99.90
837;DHT22;400;53.550;9.932;2022-10-16T10:43:35;17.80;99.90
837;DHT22;400;53.550;9.932;2022-10-16T10:46:14;17.80;99.90
837;DHT22;400;53.550;9.932;2022-10-16T10:49:10;17.80;99.90
837;DHT22;400;53.550;9.932;2022-10-16T10:51:44;17.80;99.90
837;DHT22;400;53.550;9.932;2022-10-16T10:54:20;17.80;99.90
837;DHT22;400;53.550;9.932;2022-10-16T10:56:51;17.80;99.90
837;DHT22;400;53.550;9.932;2022-10-16T10:59:54;17.80;99.90
837;DHT22;400;53.550;9.932;2022-10-16T11:02:31;17.80;99.90
837;DHT22;400;53.550;9.932;2022-10-16T11:05:28;17.90;99.90
837;DHT22;400;53.550;9.932;2022-10-16T11:08:00;17.90;99.90
837;DHT22;400;53.550;9.932;2022-10-16T11:10:42;17.90;99.90
837;DHT22;400;53.550;9.932;2022-10-16T11:13:18;18.00;99.90
837;DHT22;400;53.550;9.932;2022-10-16T11:15:50;18.10;99.90
837;DHT22;400;53.550;9.932;2022-10-16T11:18:24;18.10;99.90
837;DHT22;400;53.550;9.932;2022-10-16T11:20:54;18.20;99.90
837;DHT22;400;53.550;9.932;2022-10-16T11:23:26;18.20;99.90
837;DHT22;400;53.550;9.932;2022-10-16T11:25:59;18.20;99.90
837;DHT22;400;53.550;9.932;2022-10-16T11:28:33;18.30;99.90
837;DHT22;400;53.550;9.932;2022-10-16T11:31:10;18.40;99.90
837;DHT22;400;53.550;9.932;2022-10-16T11:33:44;18.50;99.90
837;DHT22;400;53.550;9.932;2022-10-16T11:36:17;18.60;99.90
837;DHT22;400;53.550;9.932;2022-10-16T11:38:57;18.60;99.90
837;DHT22;400;53.550;9.932;2022-10-16T11:41:29;18.70;99.90
837;DHT22;400;53.550;9.932;2022-10-16T11:44:21;18.70;99.90
837;DHT22;400;53.550;9.932;2022-10-16T11:47:00;18.80;99.90
837;DHT22;400;53.550;9.932;2022-10-16T11:49:31;18.80;99.90
837;DHT22;400;53.550;9.932;2022-10-16T11:52:04;18.70;99.90
837;DHT22;400;53.550;9.932;2022-10-16T11:54:37;18.70;99.90
837;DHT22;400;53.550;9.932;2022-10-16T11:57:11;18.60;99.90
837;DHT22;400;53.550;9.932;2022-10-16T11:59:43;18.40;99.90
837;DHT22;400;53.550;9.932;2022-10-16T12:02:31;18.40;99.90
837;DHT22;400;53.550;9.932;2022-10-16T12:05:07;18.20;99.90
837;DHT22;400;53.550;9.932;2022-10-16T12:07:44;18.10;99.90
837;DHT22;400;53.550;9.932;2022-10-16T12:10:31;18.00;99.90
837;DHT22;400;53.550;9.932;2022-10-16T12:13:25;18.00;99.90
837;DHT22;400;53.550;9.932;2022-10-16T12:16:22;17.90;99.90
837;DHT22;400;53.550;9.932;2022-10-16T12:19:12;17.90;99.90
837;DHT22;400;53.550;9.932;2022-10-16T12:21:42;17.90;99.90
837;DHT22;400;53.550;9.932;2022-10-16T12:24:27;17.90;99.90
837;DHT22;400;53.550;9.932;2022-10-16T12:27:00;17.90;99.90
837;DHT22;400;53.550;9.932;2022-10-16T12:29:36;17.90;99.90
837;DHT22;400;53.550;9.932;2022-10-16T12:32:32;18.10;99.90
837;DHT22;400;53.550;9.932;2022-10-16T12:35:26;18.30;99.90
837;DHT22;400;53.550;9.932;2022-10-16T12:38:14;18.40;99.90
837;DHT22;400;53.550;9.932;2022-10-16T12:40:43;18.20;99.90
837;DHT22;400;53.550;9.932;2022-10-16T12:43:28;18.20;99.90
837;DHT22;400;53.550;9.932;2022-10-16T12:46:20;18.20;99.90
837;DHT22;400;53.550;9.932;2022-10-16T12:48:53;18.30;99.90
837;DHT22;400;53.550;9.932;2022-10-16T12:51:35;18.40;99.90
837;DHT22;400;53.550;9.932;2022-10-16T12:54:13;18.50;99.90
837;DHT22;400;53.550;9.932;2022-10-16T12:57:03;18.50;99.90
837;DHT22;400;53.550;9.932;2022-10-16T12:59:42;18.50;99.90
837;DHT22;400;53.550;9.932;2022-10-16T13:07:53;18.60;99.90
837;DHT22;400;53.550;9.932;2022-10-16T13:10:39;18.40;99.90
837;DHT22;400;53.550;9.932;2022-10-16T13:16:25;18.40;99.90
837;DHT22;400;53.550;9.932;2022-10-16T13:19:11;18.40;99.90
837;DHT22;400;53.550;9.932;2022-10-16T13:21:51;18.40;99.90
837;DHT22;400;53.550;9.932;2022-10-16T13:25:01;18.40;99.90
837;DHT22;400;53.550;9.932;2022-10-16T13:27:37;18.40;99.90
837;DHT22;400;53.550;9.932;2022-10-16T13:30:12;18.50;99.90
837;DHT22;400;53.550;9.932;2022-10-16T13:32:47;18.50;99.90
837;DHT22;400;53.550;9.932;2022-10-16T13:35:19;18.60;99.90
837;DHT22;400;53.550;9.932;2022-10-16T13:37:50;18.60;99.90
837;DHT22;400;53.550;9.932;2022-10-16T13:40:21;18.70;99.90
837;DHT22;400;53.550;9.932;2022-10-16T13:42:49;18.70;99.90
837;DHT22;400;53.550;9.932;2022-10-16T13:45:20;18.60;99.90
837;DHT22;400;53.550;9.932;2022-10-16T13:47:47;18.60;99.90
837;DHT22;400;53.550;9.932;2022-10-16T13:50:16;18.60;99.90
837;DHT22;400;53.550;9.932;2022-10-16T13:52:43;18.70;99.90
837;DHT22;400;53.550;9.932;2022-10-16T13:55:12;18.70;99.90
837;DHT22;400;53.550;9.932;2022-10-16T13:57:45;18.90;99.90
837;DHT22;400;53.550;9.932;2022-10-16T14:00:20;18.90;99.90
837;DHT22;400;53.550;9.932;2022-10-16T14:02:52;18.90;99.90
837;DHT22;400;53.550;9.932;2022-10-16T14:05:27;18.80;99.90
837;DHT22;400;53.550;9.932;2022-10-16T14:08:01;18.90;99.90
837;DHT22;400;53.550;9.932;2022-10-16T14:10:34;18.80;99.90
837;DHT22;400;53.550;9.932;2022-10-16T14:13:06;18.70;99.90
837;DHT22;400;53.550;9.932;2022-10-16T14:15:35;18.70;99.90
837;DHT22;400;53.550;9.932;2022-10-16T14:18:03;18.80;99.90
837;DHT22;400;53.550;9.932;2022-10-16T14:20:33;18.80;99.90
837;DHT22;400;53.550;9.932;2022-10-16T14:23:02;18.90;99.90
837;DHT22;400;53.550;9.932;2022-10-16T14:25:31;18.90;99.90
837;DHT22;400;53.550;9.932;2022-10-16T14:28:00;18.90;99.90
837;DHT22;400;53.550;9.932;2022-10-16T14:30:30;19.00;99.90
837;DHT22;400;53.550;9.932;2022-10-16T14:32:59;19.00;99.90
837;DHT22;400;53.550;9.932;2022-10-16T14:35:29;19.10;99.90
837;DHT22;400;53.550;9.932;2022-10-16T14:38:03;19.00;99.90
837;DHT22;400;53.550;9.932;2022-10-16T14:40:33;19.00;99.90
837;DHT22;400;53.550;9.932;2022-10-16T14:43:22;19.00;99.90
837;DHT22;400;53.550;9.932;2022-10-16T14:45:57;19.00;99.90
837;DHT22;400;53.550;9.932;2022-10-16T14:48:27;19.00;99.90
837;DHT22;400;53.550;9.932;2022-10-16T14:50:58;19.00;99.90
837;DHT22;400;53.550;9.932;2022-10-16T14:53:29;19.00;99.90
837;DHT22;400;53.550;9.932;2022-10-16T14:55:56;18.90;99.90
837;DHT22;400;53.550;9.932;2022-10-16T14:58:25;18.70;99.90
837;DHT22;400;53.550;9.932;2022-10-16T15:00:55;18.70;99.90
837;DHT22;400;53.550;9.932;2022-10-16T15:03:31;18.60;99.90
837;DHT22;400;53.550;9.932;2022-10-16T15:06:01;18.50;99.90
837;DHT22;400;53.550;9.932;2022-10-16T15:08:30;18.40;99.90
837;DHT22;400;53.550;9.932;2022-10-16T15:11:03;18.50;99.90
837;DHT22;400;53.550;9.932;2022-10-16T15:13:40;18.40;99.90
837;DHT22;400;53.550;9.932;2022-10-16T15:16:10;18.40;99.90
837;DHT22;400;53.550;9.932;2022-10-16T15:18:49;18.30;99.90
837;DHT22;400;53.550;9.932;2022-10-16T15:21:24;18.30;99.90
837;DHT22;400;53.550;9.932;2022-10-16T15:23:54;18.30;99.90
837;DHT22;400;53.550;9.932;2022-10-16T15:26:25;18.40;99.90
837;DHT22;400;53.550;9.932;2022-10-16T15:28:53;18.30;99.90
837;DHT22;400;53.550;9.932;2022-10-16T15:31:20;18.20;99.90
837;DHT22;400;53.550;9.932;2022-10-16T15:33:53;18.10;99.90
837;DHT22;400;53.550;9.932;2022-10-16T15:36:28;18.10;99.90
837;DHT22;400;53.550;9.932;2022-10-16T15:38:58;18.10;99.90
837;DHT22;400;53.550;9.932;2022-10-16T15:41:28;18.00;99.90
837;DHT22;400;53.550;9.932;2022-10-16T15:44:03;18.00;99.90
837;DHT22;400;53.550;9.932;2022-10-16T15:46:43;18.00;99.90
837;DHT22;400;53.550;9.932;2022-10-16T15:49:14;18.10;99.90
837;DHT22;400;53.550;9.932;2022-10-16T15:51:45;18.10;99.90
837;DHT22;400;53.550;9.932;2022-10-16T15:54:28;18.10;99.90
837;DHT22;400;53.550;9.932;2022-10-16T15:57:15;18.00;99.90
837;DHT22;400;53.550;9.932;2022-10-16T15:59:57;17.90;99.90
837;DHT22;400;53.550;9.932;2022-10-16T16:02:28;17.80;99.90
837;DHT22;400;53.550;9.932;2022-10-16T16:05:09;17.70;99.90
837;DHT22;400;53.550;9.932;2022-10-16T16:07:46;17.60;99.90
837;DHT22;400;53.550;9.932;2022-10-16T16:10:26;17.70;99.90
837;DHT22;400;53.550;9.932;2022-10-16T16:12:54;17.70;99.90
837;DHT22;400;53.550;9.932;2022-10-16T16:15:22;17.80;99.90
837;DHT22;400;53.550;9.932;2022-10-16T16:17:49;17.80;99.90
837;DHT22;400;53.550;9.932;2022-10-16T16:20:23;17.80;99.90
837;DHT22;400;53.550;9.932;2022-10-16T16:22:54;17.80;99.90
837;DHT22;400;53.550;9.932;2022-10-16T16:25:31;17.80;99.90
837;DHT22;400;53.550;9.932;2022-10-16T16:28:00;17.70;99.90
837;DHT22;400;53.550;9.932;2022-10-16T16:30:32;17.60;99.90
837;DHT22;400;53.550;9.932;2022-10-16T16:33:04;17.60;99.90
837;DHT22;400;53.550;9.932;2022-10-16T16:35:34;17.60;99.90
837;DHT22;400;53.550;9.932;2022-10-16T16:38:01;17.40;99.90
837;DHT22;400;53.550;9.932;2022-10-16T16:40:30;17.20;99.90
837;DHT22;400;53.550;9.932;2022-10-16T16:42:57;17.10;99.90
837;DHT22;400;53.550;9.932;2022-10-16T16:45:25;17.00;99.90
837;DHT22;400;53.550;9.932;2022-10-16T16:47:53;17.00;99.90
837;DHT22;400;53.550;9.932;2022-10-16T16:50:22;16.90;99.90
837;DHT22;400;53.550;9.932;2022-10-16T16:52:58;17.00;99.90
837;DHT22;400;53.550;9.932;2022-10-16T16:55:30;17.00;99.90
837;DHT22;400;53.550;9.932;2022-10-16T16:58:04;17.00;99.90
837;DHT22;400;53.550;9.932;2022-10-16T17:00:36;17.00;99.90
837;DHT22;400;53.550;9.932;2022-10-16T17:03:07;17.10;99.90
837;DHT22;400;53.550;9.932;2022-10-16T17:05:34;17.10;99.90
837;DHT22;400;53.550;9.932;2022-10-16T17:08:07;17.00;99.90
837;DHT22;400;53.550;9.932;2022-10-16T17:10:44;17.10;99.90
837;DHT22;400;53.550;9.932;2022-10-16T17:13:18;17.00;99.90
837;DHT22;400;53.550;9.932;2022-10-16T17:15:47;17.00;99.90
837;DHT22;400;53.550;9.932;2022-10-16T17:18:17;16.80;99.90